sensor_id;sensor_type;location;lat;lon;timestamp;P1;durP1;ratioP1;P2;durP2;ratioP2
3447;SDS011;1738;49.500;17.736;2023-06-22T00:01:42;14.80;;;6.37;;
3447;SDS011;1738;49.500;17.736;2023-06-22T00:04:07;16.30;;;6.07;;
3447;SDS011;1738;49.500;17.736;2023-06-22T00:06:33;13.70;;;6.03;;
3447;SDS011;1738;49.500;17.736;2023-06-22T00:08:59;12.00;;;5.20;;
3447;SDS011;1738;49.500;17.736;2023-06-22T00:11:25;18.50;;;7.07;;
3447;SDS011;1738;49.500;17.736;2023-06-22T00:13:51;13.83;;;7.10;;
3447;SDS011;1738;49.500;17.736;2023-06-22T00:16:17;19.77;;;6.40;;
3447;SDS011;1738;49.500;17.736;2023-06-22T00:18:42;33.20;;;6.15;;
3447;SDS011;1738;49.500;17.736;2023-06-22T00:21:08;31.00;;;6.27;;
3447;SDS011;1738;49.500;17.736;2023-06-22T00:23:34;17.13;;;4.90;;
3447;SDS011;1738;49.500;17.736;2023-06-22T00:26:00;25.87;;;6.57;;
3447;SDS011;1738;49.500;17.736;2023-06-22T00:28:26;16.80;;;5.87;;
3447;SDS011;1738;49.500;17.736;2023-06-22T00:30:52;14.90;;;6.20;;
3447;SDS011;1738;49.500;17.736;2023-06-22T00:33:18;26.00;;;6.20;;
3447;SDS011;1738;49.500;17.736;2023-06-22T00:35:43;34.03;;;6.57;;
3447;SDS011;1738;49.500;17.736;2023-06-22T00:38:09;17.63;;;5.67;;
3447;SDS011;1738;49.500;17.736;2023-06-22T00:40:35;17.70;;;4.90;;
3447;SDS011;1738;49.500;17.736;2023-06-22T00:43:01;26.30;;;6.37;;
3447;SDS011;1738;49.500;17.736;2023-06-22T00:45:27;14.35;;;5.70;;
3447;SDS011;1738;49.500;17.736;2023-06-22T00:47:53;18.50;;;6.60;;
3447;SDS011;1738;49.500;17.736;2023-06-22T00:50:20;31.33;;;6.40;;
3447;SDS011;1738;49.500;17.736;2023-06-22T00:52:45;26.00;;;6.47;;
3447;SDS011;1738;49.500;17.736;2023-06-22T00:55:11;18.87;;;5.80;;
3447;SDS011;1738;49.500;17.736;2023-06-22T00:57:37;20.30;;;6.53;;
3447;SDS011;1738;49.500;17.736;2023-06-22T01:00:03;28.17;;;7.23;;
3447;SDS011;1738;49.500;17.736;2023-06-22T01:02:31;27.30;;;6.70;;
3447;SDS011;1738;49.500;17.736;2023-06-22T01:04:57;30.77;;;6.60;;
3447;SDS011;1738;49.500;17.736;2023-06-22T01:07:27;30.57;;;7.17;;
3447;SDS011;1738;49.500;17.736;2023-06-22T01:09:57;35.63;;;7.00;;
3447;SDS011;1738;49.500;17.736;2023-06-22T01:12:20;23.03;;;7.03;;
3447;SDS011;1738;49.500;17.736;2023-06-22T01:14:49;22.27;;;7.40;;
3447;SDS011;1738;49.500;17.736;2023-06-22T01:17:13;27.33;;;6.80;;
3447;SDS011;1738;49.500;17.736;2023-06-22T01:19:43;24.37;;;6.50;;
3447;SDS011;1738;49.500;17.736;2023-06-22T01:22:05;26.07;;;6.70;;
3447;SDS011;1738;49.500;17.736;2023-06-22T01:24:46;23.50;;;6.40;;
3447;SDS011;1738;49.500;17.736;2023-06-22T01:27:09;119.10;;;10.33;;
3447;SDS011;1738;49.500;17.736;2023-06-22T01:29:30;32.93;;;7.57;;
3447;SDS011;1738;49.500;17.736;2023-06-22T01:31:56;17.60;;;5.47;;
3447;SDS011;1738;49.500;17.736;2023-06-22T01:34:22;35.60;;;6.80;;
3447;SDS011;1738;49.500;17.736;2023-06-22T01:36:48;27.93;;;8.93;;
3447;SDS011;1738;49.500;17.736;2023-06-22T01:39:14;24.03;;;7.00;;
3447;SDS011;1738;49.500;17.736;2023-06-22T01:41:40;29.20;;;8.13;;
3447;SDS011;1738;49.500;17.736;2023-06-22T01:44:06;29.00;;;6.63;;
3447;SDS011;1738;49.500;17.736;2023-06-22T01:46:32;23.23;;;6.83;;
3447;SDS011;1738;49.500;17.736;2023-06-22T01:48:57;19.43;;;7.47;;
3447;SDS011;1738;49.500;17.736;2023-06-22T01:51:23;28.40;;;7.20;;
3447;SDS011;1738;49.500;17.736;2023-06-22T01:53:49;19.23;;;6.90;;
3447;SDS011;1738;49.500;17.736;2023-06-22T01:56:16;15.83;;;6.50;;
3447;SDS011;1738;49.500;17.736;2023-06-22T01:58:44;170.13;;;12.90;;
3447;SDS011;1738;49.500;17.736;2023-06-22T02:01:10;16.73;;;5.80;;
3447;SDS011;1738;49.500;17.736;2023-06-22T02:03:36;23.13;;;7.30;;
3447;SDS011;1738;49.500;17.736;2023-06-22T02:06:03;25.13;;;6.93;;
3447;SDS011;1738;49.500;17.736;2023-06-22T02:08:28;33.50;;;7.70;;
3447;SDS011;1738;49.500;17.736;2023-06-22T02:10:53;20.83;;;7.90;;
3447;SDS011;1738;49.500;17.736;2023-06-22T02:13:19;27.50;;;8.97;;
3447;SDS011;1738;49.500;17.736;2023-06-22T02:15:45;37.30;;;10.07;;
3447;SDS011;1738;49.500;17.736;2023-06-22T02:18:11;24.60;;;9.20;;
3447;SDS011;1738;49.500;17.736;2023-06-22T02:20:37;43.03;;;8.47;;
3447;SDS011;1738;49.500;17.736;2023-06-22T02:23:02;133.10;;;10.80;;
3447;SDS011;1738;49.500;17.736;2023-06-22T02:25:28;96.60;;;9.97;;
3447;SDS011;1738;49.500;17.736;2023-06-22T02:27:54;25.07;;;7.67;;
3447;SDS011;1738;49.500;17.736;2023-06-22T02:30:20;18.07;;;6.60;;
3447;SDS011;1738;49.500;17.736;2023-06-22T02:32:46;13.37;;;7.00;;
3447;SDS011;1738;49.500;17.736;2023-06-22T02:35:11;27.13;;;6.60;;
3447;SDS011;1738;49.500;17.736;2023-06-22T02:37:37;26.10;;;8.10;;
3447;SDS011;1738;49.500;17.736;2023-06-22T02:40:05;31.00;;;7.25;;
3447;SDS011;1738;49.500;17.736;2023-06-22T02:42:31;37.83;;;8.00;;
3447;SDS011;1738;49.500;17.736;2023-06-22T02:44:57;21.77;;;6.27;;
3447;SDS011;1738;49.500;17.736;2023-06-22T02:47:22;17.50;;;6.60;;
3447;SDS011;1738;49.500;17.736;2023-06-22T02:49:48;21.73;;;6.67;;
3447;SDS011;1738;49.500;17.736;2023-06-22T02:52:14;24.43;;;6.37;;
3447;SDS011;1738;49.500;17.736;2023-06-22T02:54:40;29.33;;;7.60;;
3447;SDS011;1738;49.500;17.736;2023-06-22T02:57:06;14.33;;;5.83;;
3447;SDS011;1738;49.500;17.736;2023-06-22T02:59:32;18.37;;;7.10;;
3447;SDS011;1738;49.500;17.736;2023-06-22T03:01:57;17.13;;;5.30;;
3447;SDS011;1738;49.500;17.736;2023-06-22T03:04:23;9.80;;;4.93;;
3447;SDS011;1738;49.500;17.736;2023-06-22T03:06:49;32.57;;;5.97;;
3447;SDS011;1738;49.500;17.736;2023-06-22T03:09:15;16.43;;;5.40;;
3447;SDS011;1738;49.500;17.736;2023-06-22T03:11:41;15.43;;;5.40;;
3447;SDS011;1738;49.500;17.736;2023-06-22T03:14:07;18.20;;;5.30;;
3447;SDS011;1738;49.500;17.736;2023-06-22T03:16:32;11.47;;;5.93;;
3447;SDS011;1738;49.500;17.736;2023-06-22T03:18:58;18.97;;;5.70;;
3447;SDS011;1738;49.500;17.736;2023-06-22T03:21:27;16.00;;;5.37;;
3447;SDS011;1738;49.500;17.736;2023-06-22T03:23:50;9.30;;;5.27;;
3447;SDS011;1738;49.500;17.736;2023-06-22T03:26:16;14.13;;;7.10;;
3447;SDS011;1738;49.500;17.736;2023-06-22T03:28:42;16.53;;;6.20;;
3447;SDS011;1738;49.500;17.736;2023-06-22T03:31:07;19.57;;;6.67;;
3447;SDS011;1738;49.500;17.736;2023-06-22T03:33:33;12.00;;;5.90;;
3447;SDS011;1738;49.500;17.736;2023-06-22T03:35:59;16.03;;;5.20;;
3447;SDS011;1738;49.500;17.736;2023-06-22T03:38:25;17.70;;;6.18;;
3447;SDS011;1738;49.500;17.736;2023-06-22T03:40:51;17.53;;;6.13;;
3447;SDS011;1738;49.500;17.736;2023-06-22T03:43:17;22.30;;;5.57;;
3447;SDS011;1738;49.500;17.736;2023-06-22T03:45:43;20.53;;;7.73;;
3447;SDS011;1738;49.500;17.736;2023-06-22T03:48:08;22.83;;;6.87;;
3447;SDS011;1738;49.500;17.736;2023-06-22T03:50:34;22.90;;;8.00;;
3447;SDS011;1738;49.500;17.736;2023-06-22T03:53:00;28.57;;;7.80;;
3447;SDS011;1738;49.500;17.736;2023-06-22T03:55:26;25.83;;;8.37;;
3447;SDS011;1738;49.500;17.736;2023-06-22T03:57:52;32.00;;;7.50;;
3447;SDS011;1738;49.500;17.736;2023-06-22T04:00:18;30.40;;;7.27;;
3447;SDS011;1738;49.500;17.736;2023-06-22T04:02:44;17.83;;;8.23;;
3447;SDS011;1738;49.500;17.736;2023-06-22T04:05:09;17.17;;;8.30;;
3447;SDS011;1738;49.500;17.736;2023-06-22T04:07:35;20.03;;;7.93;;
3447;SDS011;1738;49.500;17.736;2023-06-22T04:10:03;17.50;;;8.30;;
3447;SDS011;1738;49.500;17.736;2023-06-22T04:12:28;16.90;;;7.77;;
3447;SDS011;1738;49.500;17.736;2023-06-22T04:14:54;13.30;;;8.37;;
3447;SDS011;1738;49.500;17.736;2023-06-22T04:17:19;24.80;;;9.00;;
3447;SDS011;1738;49.500;17.736;2023-06-22T04:19:45;15.63;;;7.73;;
3447;SDS011;1738;49.500;17.736;2023-06-22T04:22:11;19.63;;;10.33;;
3447;SDS011;1738;49.500;17.736;2023-06-22T04:24:37;19.70;;;8.97;;
3447;SDS011;1738;49.500;17.736;2023-06-22T04:27:03;18.80;;;8.00;;
3447;SDS011;1738;49.500;17.736;2023-06-22T04:29:29;17.70;;;9.97;;
3447;SDS011;1738;49.500;17.736;2023-06-22T04:31:56;23.90;;;8.50;;
3447;SDS011;1738;49.500;17.736;2023-06-22T04:34:22;18.07;;;7.43;;
3447;SDS011;1738;49.500;17.736;2023-06-22T04:36:47;20.70;;;7.90;;
3447;SDS011;1738;49.500;17.736;2023-06-22T04:39:14;13.57;;;7.30;;
3447;SDS011;1738;49.500;17.736;2023-06-22T04:41:39;18.70;;;8.73;;
3447;SDS011;1738;49.500;17.736;2023-06-22T04:44:08;12.97;;;7.20;;
3447;SDS011;1738;49.500;17.736;2023-06-22T04:46:33;10.53;;;6.27;;
3447;SDS011;1738;49.500;17.736;2023-06-22T04:48:59;25.52;;;9.07;;
3447;SDS011;1738;49.500;17.736;2023-06-22T04:51:25;13.53;;;7.03;;
3447;SDS011;1738;49.500;17.736;2023-06-22T04:53:51;14.77;;;6.53;;
3447;SDS011;1738;49.500;17.736;2023-06-22T04:56:17;18.92;;;6.45;;
3447;SDS011;1738;49.500;17.736;2023-06-22T04:58:43;22.33;;;7.40;;
3447;SDS011;1738;49.500;17.736;2023-06-22T05:01:09;13.47;;;6.37;;
3447;SDS011;1738;49.500;17.736;2023-06-22T05:03:34;9.63;;;5.60;;
3447;SDS011;1738;49.500;17.736;2023-06-22T05:06:00;16.70;;;7.00;;
3447;SDS011;1738;49.500;17.736;2023-06-22T05:08:26;11.43;;;6.40;;
3447;SDS011;1738;49.500;17.736;2023-06-22T05:10:52;12.60;;;6.13;;
3447;SDS011;1738;49.500;17.736;2023-06-22T05:13:18;11.90;;;5.78;;
3447;SDS011;1738;49.500;17.736;2023-06-22T05:15:44;9.77;;;5.77;;
3447;SDS011;1738;49.500;17.736;2023-06-22T05:18:09;9.40;;;5.73;;
3447;SDS011;1738;49.500;17.736;2023-06-22T05:20:35;12.87;;;5.27;;
3447;SDS011;1738;49.500;17.736;2023-06-22T05:23:01;10.43;;;4.97;;
3447;SDS011;1738;49.500;17.736;2023-06-22T05:25:27;10.20;;;6.10;;
3447;SDS011;1738;49.500;17.736;2023-06-22T05:27:53;10.80;;;5.55;;
3447;SDS011;1738;49.500;17.736;2023-06-22T05:30:19;14.80;;;6.05;;
3447;SDS011;1738;49.500;17.736;2023-06-22T05:32:45;17.93;;;5.57;;
3447;SDS011;1738;49.500;17.736;2023-06-22T05:35:11;8.97;;;5.50;;
3447;SDS011;1738;49.500;17.736;2023-06-22T05:37:37;8.83;;;5.50;;
3447;SDS011;1738;49.500;17.736;2023-06-22T05:40:03;11.80;;;5.93;;
3447;SDS011;1738;49.500;17.736;2023-06-22T05:42:29;23.30;;;5.10;;
3447;SDS011;1738;49.500;17.736;2023-06-22T05:44:55;10.80;;;6.10;;
3447;SDS011;1738;49.500;17.736;2023-06-22T05:47:21;15.73;;;5.77;;
3447;SDS011;1738;49.500;17.736;2023-06-22T05:49:46;12.13;;;5.20;;
3447;SDS011;1738;49.500;17.736;2023-06-22T05:52:12;17.10;;;6.40;;
3447;SDS011;1738;49.500;17.736;2023-06-22T05:54:38;13.13;;;5.67;;
3447;SDS011;1738;49.500;17.736;2023-06-22T05:57:04;13.50;;;5.53;;
3447;SDS011;1738;49.500;17.736;2023-06-22T05:59:30;12.60;;;6.10;;
3447;SDS011;1738;49.500;17.736;2023-06-22T06:01:56;11.07;;;6.23;;
3447;SDS011;1738;49.500;17.736;2023-06-22T06:04:22;9.97;;;5.47;;
3447;SDS011;1738;49.500;17.736;2023-06-22T06:06:48;10.10;;;5.43;;
3447;SDS011;1738;49.500;17.736;2023-06-22T06:09:14;10.50;;;5.70;;
3447;SDS011;1738;49.500;17.736;2023-06-22T06:11:39;16.30;;;6.47;;
3447;SDS011;1738;49.500;17.736;2023-06-22T06:14:05;10.30;;;5.87;;
3447;SDS011;1738;49.500;17.736;2023-06-22T06:16:31;18.63;;;5.80;;
3447;SDS011;1738;49.500;17.736;2023-06-22T06:18:57;14.67;;;5.70;;
3447;SDS011;1738;49.500;17.736;2023-06-22T06:21:23;13.03;;;5.93;;
3447;SDS011;1738;49.500;17.736;2023-06-22T06:23:49;10.90;;;7.30;;
3447;SDS011;1738;49.500;17.736;2023-06-22T06:26:14;17.63;;;6.93;;
3447;SDS011;1738;49.500;17.736;2023-06-22T06:28:40;14.00;;;8.27;;
3447;SDS011;1738;49.500;17.736;2023-06-22T06:31:06;18.07;;;7.83;;
3447;SDS011;1738;49.500;17.736;2023-06-22T06:33:32;11.27;;;6.77;;
3447;SDS011;1738;49.500;17.736;2023-06-22T06:35:58;10.33;;;7.70;;
3447;SDS011;1738;49.500;17.736;2023-06-22T06:38:24;13.07;;;10.00;;
3447;SDS011;1738;49.500;17.736;2023-06-22T06:40:50;20.00;;;9.07;;
3447;SDS011;1738;49.500;17.736;2023-06-22T06:43:15;14.70;;;10.83;;
3447;SDS011;1738;49.500;17.736;2023-06-22T06:45:41;19.73;;;10.20;;
3447;SDS011;1738;49.500;17.736;2023-06-22T06:48:07;17.73;;;10.60;;
3447;SDS011;1738;49.500;17.736;2023-06-22T06:50:33;14.60;;;10.48;;
3447;SDS011;1738;49.500;17.736;2023-06-22T06:52:59;14.13;;;11.73;;
3447;SDS011;1738;49.500;17.736;2023-06-22T06:55:25;11.50;;;10.30;;
3447;SDS011;1738;49.500;17.736;2023-06-22T06:57:51;18.77;;;11.70;;
3447;SDS011;1738;49.500;17.736;2023-06-22T07:00:17;22.37;;;11.13;;
3447;SDS011;1738;49.500;17.736;2023-06-22T07:02:43;17.03;;;13.60;;
3447;SDS011;1738;49.500;17.736;2023-06-22T07:05:09;16.07;;;11.50;;
3447;SDS011;1738;49.500;17.736;2023-06-22T07:07:35;17.33;;;13.00;;
3447;SDS011;1738;49.500;17.736;2023-06-22T07:10:01;14.90;;;13.20;;
3447;SDS011;1738;49.500;17.736;2023-06-22T07:12:27;16.48;;;12.98;;
3447;SDS011;1738;49.500;17.736;2023-06-22T07:14:52;22.47;;;12.73;;
3447;SDS011;1738;49.500;17.736;2023-06-22T07:17:18;18.33;;;12.67;;
3447;SDS011;1738;49.500;17.736;2023-06-22T07:19:45;16.43;;;11.90;;
3447;SDS011;1738;49.500;17.736;2023-06-22T07:22:10;13.80;;;11.90;;
3447;SDS011;1738;49.500;17.736;2023-06-22T07:24:36;19.63;;;13.00;;
3447;SDS011;1738;49.500;17.736;2023-06-22T07:27:02;22.23;;;14.47;;
3447;SDS011;1738;49.500;17.736;2023-06-22T07:29:28;15.50;;;12.33;;
3447;SDS011;1738;49.500;17.736;2023-06-22T07:31:54;16.70;;;12.90;;
3447;SDS011;1738;49.500;17.736;2023-06-22T07:34:20;22.57;;;12.53;;
3447;SDS011;1738;49.500;17.736;2023-06-22T07:36:45;19.30;;;14.03;;
3447;SDS011;1738;49.500;17.736;2023-06-22T07:39:11;24.10;;;15.07;;
3447;SDS011;1738;49.500;17.736;2023-06-22T07:41:38;24.03;;;15.80;;
3447;SDS011;1738;49.500;17.736;2023-06-22T07:44:03;20.50;;;16.27;;
3447;SDS011;1738;49.500;17.736;2023-06-22T07:46:29;21.57;;;18.73;;
3447;SDS011;1738;49.500;17.736;2023-06-22T07:48:56;23.90;;;16.80;;
3447;SDS011;1738;49.500;17.736;2023-06-22T07:51:21;30.90;;;21.60;;
3447;SDS011;1738;49.500;17.736;2023-06-22T07:53:47;23.40;;;19.70;;
3447;SDS011;1738;49.500;17.736;2023-06-22T07:56:13;22.23;;;19.27;;
3447;SDS011;1738;49.500;17.736;2023-06-22T07:58:39;22.33;;;19.57;;
3447;SDS011;1738;49.500;17.736;2023-06-22T08:01:05;22.97;;;20.43;;
3447;SDS011;1738;49.500;17.736;2023-06-22T08:03:31;21.60;;;18.90;;
3447;SDS011;1738;49.500;17.736;2023-06-22T08:05:56;23.80;;;20.57;;
3447;SDS011;1738;49.500;17.736;2023-06-22T08:08:22;27.97;;;21.63;;
3447;SDS011;1738;49.500;17.736;2023-06-22T08:10:48;23.40;;;20.43;;
3447;SDS011;1738;49.500;17.736;2023-06-22T08:13:14;25.23;;;21.20;;
3447;SDS011;1738;49.500;17.736;2023-06-22T08:15:40;24.10;;;20.60;;
3447;SDS011;1738;49.500;17.736;2023-06-22T08:18:06;23.43;;;20.93;;
3447;SDS011;1738;49.500;17.736;2023-06-22T08:20:32;20.13;;;18.03;;
3447;SDS011;1738;49.500;17.736;2023-06-22T08:22:57;23.60;;;21.20;;
3447;SDS011;1738;49.500;17.736;2023-06-22T08:25:23;24.43;;;20.90;;
3447;SDS011;1738;49.500;17.736;2023-06-22T08:27:49;20.63;;;17.67;;
3447;SDS011;1738;49.500;17.736;2023-06-22T08:30:15;20.27;;;17.87;;
3447;SDS011;1738;49.500;17.736;2023-06-22T08:32:41;24.30;;;21.70;;
3447;SDS011;1738;49.500;17.736;2023-06-22T08:35:07;22.50;;;19.70;;
3447;SDS011;1738;49.500;17.736;2023-06-22T08:37:34;20.27;;;18.07;;
3447;SDS011;1738;49.500;17.736;2023-06-22T08:40:00;20.00;;;17.90;;
3447;SDS011;1738;49.500;17.736;2023-06-22T08:42:26;26.30;;;19.93;;
3447;SDS011;1738;49.500;17.736;2023-06-22T08:44:52;21.57;;;18.43;;
3447;SDS011;1738;49.500;17.736;2023-06-22T08:47:18;21.67;;;18.50;;
3447;SDS011;1738;49.500;17.736;2023-06-22T08:49:44;23.70;;;16.80;;
3447;SDS011;1738;49.500;17.736;2023-06-22T08:52:09;23.63;;;18.13;;
3447;SDS011;1738;49.500;17.736;2023-06-22T08:54:35;18.73;;;16.73;;
3447;SDS011;1738;49.500;17.736;2023-06-22T08:57:02;21.07;;;18.33;;
3447;SDS011;1738;49.500;17.736;2023-06-22T08:59:27;21.50;;;16.10;;
3447;SDS011;1738;49.500;17.736;2023-06-22T09:01:53;18.83;;;16.07;;
3447;SDS011;1738;49.500;17.736;2023-06-22T09:04:19;21.27;;;18.67;;
3447;SDS011;1738;49.500;17.736;2023-06-22T09:06:45;19.27;;;17.10;;
3447;SDS011;1738;49.500;17.736;2023-06-22T09:09:11;21.00;;;18.53;;
3447;SDS011;1738;49.500;17.736;2023-06-22T09:11:36;18.87;;;16.97;;
3447;SDS011;1738;49.500;17.736;2023-06-22T09:14:02;18.77;;;16.87;;
3447;SDS011;1738;49.500;17.736;2023-06-22T09:16:28;19.23;;;17.30;;
3447;SDS011;1738;49.500;17.736;2023-06-22T09:18:54;18.97;;;16.90;;
3447;SDS011;1738;49.500;17.736;2023-06-22T09:21:20;20.30;;;17.50;;
3447;SDS011;1738;49.500;17.736;2023-06-22T09:23:46;23.03;;;16.83;;
3447;SDS011;1738;49.500;17.736;2023-06-22T09:26:12;22.33;;;18.13;;
3447;SDS011;1738;49.500;17.736;2023-06-22T09:28:37;18.83;;;15.83;;
3447;SDS011;1738;49.500;17.736;2023-06-22T09:31:03;19.80;;;17.80;;
3447;SDS011;1738;49.500;17.736;2023-06-22T09:33:29;18.20;;;15.73;;
3447;SDS011;1738;49.500;17.736;2023-06-22T09:35:55;18.77;;;16.80;;
3447;SDS011;1738;49.500;17.736;2023-06-22T09:38:21;16.93;;;14.40;;
3447;SDS011;1738;49.500;17.736;2023-06-22T09:40:47;18.03;;;15.43;;
3447;SDS011;1738;49.500;17.736;2023-06-22T09:43:13;16.93;;;15.13;;
3447;SDS011;1738;49.500;17.736;2023-06-22T09:45:38;16.57;;;13.90;;
3447;SDS011;1738;49.500;17.736;2023-06-22T09:48:04;18.50;;;15.87;;
3447;SDS011;1738;49.500;17.736;2023-06-22T09:50:30;18.20;;;14.20;;
3447;SDS011;1738;49.500;17.736;2023-06-22T09:52:56;18.90;;;15.27;;
3447;SDS011;1738;49.500;17.736;2023-06-22T09:55:22;16.23;;;14.60;;
3447;SDS011;1738;49.500;17.736;2023-06-22T09:57:48;14.67;;;13.13;;
3447;SDS011;1738;49.500;17.736;2023-06-22T10:00:16;17.70;;;13.50;;
3447;SDS011;1738;49.500;17.736;2023-06-22T10:02:41;17.10;;;13.70;;
3447;SDS011;1738;49.500;17.736;2023-06-22T10:05:06;16.87;;;14.10;;
3447;SDS011;1738;49.500;17.736;2023-06-22T10:07:32;14.50;;;13.00;;
3447;SDS011;1738;49.500;17.736;2023-06-22T10:09:58;17.20;;;13.67;;
3447;SDS011;1738;49.500;17.736;2023-06-22T10:12:25;15.67;;;13.07;;
3447;SDS011;1738;49.500;17.736;2023-06-22T10:14:50;15.87;;;14.23;;
3447;SDS011;1738;49.500;17.736;2023-06-22T10:17:16;17.20;;;15.47;;
3447;SDS011;1738;49.500;17.736;2023-06-22T10:19:42;18.90;;;16.70;;
3447;SDS011;1738;49.500;17.736;2023-06-22T10:22:08;16.10;;;14.50;;
3447;SDS011;1738;49.500;17.736;2023-06-22T10:24:34;18.13;;;16.03;;
3447;SDS011;1738;49.500;17.736;2023-06-22T10:27:00;17.67;;;15.77;;
3447;SDS011;1738;49.500;17.736;2023-06-22T10:29:26;18.03;;;16.17;;
3447;SDS011;1738;49.500;17.736;2023-06-22T10:31:52;18.57;;;16.10;;
3447;SDS011;1738;49.500;17.736;2023-06-22T10:34:18;19.55;;;17.00;;
3447;SDS011;1738;49.500;17.736;2023-06-22T10:36:45;18.73;;;16.93;;
3447;SDS011;1738;49.500;17.736;2023-06-22T10:39:11;21.27;;;16.43;;
3447;SDS011;1738;49.500;17.736;2023-06-22T10:41:37;17.83;;;16.10;;
3447;SDS011;1738;49.500;17.736;2023-06-22T10:44:04;20.50;;;16.60;;
3447;SDS011;1738;49.500;17.736;2023-06-22T10:46:30;18.43;;;16.63;;
3447;SDS011;1738;49.500;17.736;2023-06-22T10:48:56;17.73;;;15.90;;
3447;SDS011;1738;49.500;17.736;2023-06-22T10:51:22;19.50;;;17.30;;
3447;SDS011;1738;49.500;17.736;2023-06-22T10:53:48;18.70;;;16.17;;
3447;SDS011;1738;49.500;17.736;2023-06-22T10:56:13;18.30;;;16.50;;
3447;SDS011;1738;49.500;17.736;2023-06-22T10:58:39;16.93;;;15.33;;
3447;SDS011;1738;49.500;17.736;2023-06-22T11:01:05;18.07;;;16.23;;
3447;SDS011;1738;49.500;17.736;2023-06-22T11:03:31;17.73;;;15.77;;
3447;SDS011;1738;49.500;17.736;2023-06-22T11:05:57;17.23;;;15.67;;
3447;SDS011;1738;49.500;17.736;2023-06-22T11:08:23;17.87;;;15.97;;
3447;SDS011;1738;49.500;17.736;2023-06-22T11:10:49;15.07;;;12.80;;
3447;SDS011;1738;49.500;17.736;2023-06-22T11:13:14;17.67;;;15.60;;
3447;SDS011;1738;49.500;17.736;2023-06-22T11:15:40;17.10;;;15.30;;
3447;SDS011;1738;49.500;17.736;2023-06-22T11:18:06;17.00;;;15.50;;
3447;SDS011;1738;49.500;17.736;2023-06-22T11:20:33;16.73;;;14.97;;
3447;SDS011;1738;49.500;17.736;2023-06-22T11:22:58;16.20;;;14.47;;
3447;SDS011;1738;49.500;17.736;2023-06-22T11:25:24;17.43;;;15.70;;
3447;SDS011;1738;49.500;17.736;2023-06-22T11:27:50;18.20;;;13.80;;
3447;SDS011;1738;49.500;17.736;2023-06-22T11:30:16;20.73;;;14.17;;
3447;SDS011;1738;49.500;17.736;2023-06-22T11:32:41;18.00;;;13.93;;
3447;SDS011;1738;49.500;17.736;2023-06-22T11:35:07;17.53;;;14.20;;
3447;SDS011;1738;49.500;17.736;2023-06-22T11:37:33;17.27;;;15.33;;
3447;SDS011;1738;49.500;17.736;2023-06-22T11:39:59;17.00;;;14.07;;
3447;SDS011;1738;49.500;17.736;2023-06-22T11:42:25;16.20;;;14.43;;
3447;SDS011;1738;49.500;17.736;2023-06-22T11:44:51;15.83;;;14.03;;
3447;SDS011;1738;49.500;17.736;2023-06-22T11:47:17;16.60;;;14.80;;
3447;SDS011;1738;49.500;17.736;2023-06-22T11:49:42;15.60;;;14.10;;
3447;SDS011;1738;49.500;17.736;2023-06-22T11:52:08;17.73;;;15.93;;
3447;SDS011;1738;49.500;17.736;2023-06-22T11:54:34;15.27;;;13.57;;
3447;SDS011;1738;49.500;17.736;2023-06-22T11:57:00;25.73;;;14.97;;
3447;SDS011;1738;49.500;17.736;2023-06-22T11:59:26;16.20;;;14.60;;
3447;SDS011;1738;49.500;17.736;2023-06-22T12:01:52;16.47;;;14.97;;
3447;SDS011;1738;49.500;17.736;2023-06-22T12:04:18;17.87;;;15.90;;
3447;SDS011;1738;49.500;17.736;2023-06-22T12:06:43;16.83;;;15.13;;
3447;SDS011;1738;49.500;17.736;2023-06-22T12:09:10;17.67;;;15.87;;
3447;SDS011;1738;49.500;17.736;2023-06-22T12:11:35;17.48;;;15.73;;
3447;SDS011;1738;49.500;17.736;2023-06-22T12:14:01;16.40;;;14.70;;
3447;SDS011;1738;49.500;17.736;2023-06-22T12:16:27;16.70;;;15.10;;
3447;SDS011;1738;49.500;17.736;2023-06-22T12:18:53;19.13;;;15.20;;
3447;SDS011;1738;49.500;17.736;2023-06-22T12:21:18;17.57;;;15.77;;
3447;SDS011;1738;49.500;17.736;2023-06-22T12:23:44;17.30;;;15.60;;
3447;SDS011;1738;49.500;17.736;2023-06-22T12:26:10;17.50;;;15.13;;
3447;SDS011;1738;49.500;17.736;2023-06-22T12:28:36;18.60;;;16.63;;
3447;SDS011;1738;49.500;17.736;2023-06-22T12:31:02;17.70;;;15.50;;
3447;SDS011;1738;49.500;17.736;2023-06-22T12:33:28;16.20;;;14.50;;
3447;SDS011;1738;49.500;17.736;2023-06-22T12:35:54;17.07;;;15.27;;
3447;SDS011;1738;49.500;17.736;2023-06-22T12:38:19;15.70;;;14.03;;
3447;SDS011;1738;49.500;17.736;2023-06-22T12:40:45;16.97;;;14.53;;
3447;SDS011;1738;49.500;17.736;2023-06-22T12:43:11;20.73;;;15.83;;
3447;SDS011;1738;49.500;17.736;2023-06-22T12:45:37;19.23;;;16.67;;
3447;SDS011;1738;49.500;17.736;2023-06-22T12:48:03;16.47;;;14.83;;
3447;SDS011;1738;49.500;17.736;2023-06-22T12:50:29;17.00;;;15.20;;
3447;SDS011;1738;49.500;17.736;2023-06-22T12:52:55;19.40;;;16.20;;
3447;SDS011;1738;49.500;17.736;2023-06-22T12:55:21;16.17;;;14.57;;
3447;SDS011;1738;49.500;17.736;2023-06-22T12:57:47;18.60;;;15.57;;
3447;SDS011;1738;49.500;17.736;2023-06-22T13:00:13;17.63;;;15.97;;
3447;SDS011;1738;49.500;17.736;2023-06-22T13:02:39;18.27;;;16.47;;
3447;SDS011;1738;49.500;17.736;2023-06-22T13:05:04;16.27;;;14.77;;
3447;SDS011;1738;49.500;17.736;2023-06-22T13:07:30;18.17;;;16.40;;
3447;SDS011;1738;49.500;17.736;2023-06-22T13:09:56;16.27;;;14.57;;
3447;SDS011;1738;49.500;17.736;2023-06-22T13:12:22;18.13;;;16.10;;
3447;SDS011;1738;49.500;17.736;2023-06-22T13:14:48;19.77;;;16.60;;
3447;SDS011;1738;49.500;17.736;2023-06-22T13:17:14;17.30;;;15.43;;
3447;SDS011;1738;49.500;17.736;2023-06-22T13:19:40;16.50;;;14.90;;
3447;SDS011;1738;49.500;17.736;2023-06-22T13:22:09;17.70;;;16.10;;
3447;SDS011;1738;49.500;17.736;2023-06-22T13:24:32;18.10;;;15.50;;
3447;SDS011;1738;49.500;17.736;2023-06-22T13:26:57;16.70;;;15.10;;
3447;SDS011;1738;49.500;17.736;2023-06-22T13:29:23;17.10;;;15.27;;
3447;SDS011;1738;49.500;17.736;2023-06-22T13:31:49;16.50;;;14.80;;
3447;SDS011;1738;49.500;17.736;2023-06-22T13:34:15;18.00;;;16.10;;
3447;SDS011;1738;49.500;17.736;2023-06-22T13:36:41;17.70;;;15.83;;
3447;SDS011;1738;49.500;17.736;2023-06-22T13:39:09;17.23;;;15.63;;
3447;SDS011;1738;49.500;17.736;2023-06-22T13:41:36;16.33;;;14.80;;
3447;SDS011;1738;49.500;17.736;2023-06-22T13:44:03;15.57;;;14.00;;
3447;SDS011;1738;49.500;17.736;2023-06-22T13:46:31;17.40;;;14.57;;
3447;SDS011;1738;49.500;17.736;2023-06-22T13:48:57;21.77;;;15.50;;
3447;SDS011;1738;49.500;17.736;2023-06-22T13:51:23;18.23;;;14.77;;
3447;SDS011;1738;49.500;17.736;2023-06-22T13:53:49;17.90;;;14.90;;
3447;SDS011;1738;49.500;17.736;2023-06-22T13:56:15;15.97;;;14.47;;
3447;SDS011;1738;49.500;17.736;2023-06-22T13:58:41;17.80;;;16.10;;
3447;SDS011;1738;49.500;17.736;2023-06-22T14:01:07;16.90;;;15.20;;
3447;SDS011;1738;49.500;17.736;2023-06-22T14:03:33;17.20;;;15.33;;
3447;SDS011;1738;49.500;17.736;2023-06-22T14:05:59;15.30;;;13.77;;
3447;SDS011;1738;49.500;17.736;2023-06-22T14:08:25;17.47;;;15.67;;
3447;SDS011;1738;49.500;17.736;2023-06-22T14:10:51;16.20;;;14.60;;
3447;SDS011;1738;49.500;17.736;2023-06-22T14:13:17;17.10;;;15.53;;
3447;SDS011;1738;49.500;17.736;2023-06-22T14:15:42;15.00;;;13.50;;
3447;SDS011;1738;49.500;17.736;2023-06-22T14:18:08;19.10;;;15.90;;
3447;SDS011;1738;49.500;17.736;2023-06-22T14:20:34;16.40;;;14.67;;
3447;SDS011;1738;49.500;17.736;2023-06-22T14:23:01;19.03;;;15.57;;
3447;SDS011;1738;49.500;17.736;2023-06-22T14:25:26;16.20;;;14.67;;
3447;SDS011;1738;49.500;17.736;2023-06-22T14:27:52;17.70;;;14.20;;
3447;SDS011;1738;49.500;17.736;2023-06-22T14:30:18;16.50;;;14.30;;
3447;SDS011;1738;49.500;17.736;2023-06-22T14:32:44;15.93;;;14.20;;